Sandnessjøen, Norge

03:06:CEST den 27. august 2016 (GMT +0200)
Fylkesveg 188 | | Change Station

H.o.h 0 ft 66.18 °N, 12.53 °E | Updated 14 seconds ago

Overcast
Overskyet
51.6 °F
Feels Like 51.6 °F
N
21.1
Vind Variabel Vind from
Gusts 31.1 mph

I dag
High -- | Low -- °F
--% Chance of Precip.
I går
High -- | Low -- °F
Precip. -- tommer
Lufttrykk 29.18 tommer
Sikt 6.2 eng. mil
Skyet For det meste skyet 2900 ft
Overskyet 3900 ft
Duggpunkt 52 °F
Fuktighet 100%
Regn Not available.
Snødybde Not available.
5:30 AM 8:50 PM
Minkende sigd, 29% visible
METAR ENBN 270050Z AUTO 05008KT 9999NDV BKN029/// OVC039/// 13/12 Q0988
Lufttrykk 29.18 tommer
Sikt 6.2 eng. mil
Skyet For det meste skyet 2900 ft
Overskyet 3900 ft
Duggpunkt 52 °F
Fuktighet 100%
Regn Not available.
Snødybde Not available.
5:30 AM 8:50 PM
Minkende sigd, 29% visible
METAR ENBN 270050Z AUTO 05008KT 9999NDV BKN029/// OVC039/// 13/12 Q0988

10-Day Weather Forecast

×

Almanac

Astronomi

Aug. 27, 2016 Oppgang Nedgang
Virkelig tid
Tussmørke
Nautisk skumring
Astronomisk skumring
Månen
Lengde av synlig lys
Dagens lengde
Tomorrow will be .
, % of the Moon is Illuminated

Dagens maks og min

Country Highs Country Lows

Community

WunderPhotos

Upload Photos

1,935,261 photos uploaded!

WunderBlog® & News

Nearby

Luftkvalitet

  Luftkvalitet AQ Indeks Forurensing
Not available.

Snødybde

Stasjon Depth Høyde over havet

Earthquake Activity

By Distance Mag. Time & Date
Minimum magnitude displayed is 2.5.

Coastal Water Temperatures

Sted Temperatur

Stations

Nearby Weather Stations

Stasjonens lokasjon Temp. Nedkjølingseffekt Duggpunkt Fuktighet Vind Precip. H.o.h Oppdatert Type